createdAt,value
2022-08-05T03:50:01.019Z,10
2022-08-05T03:50:51.178Z,10
2022-08-05T03:56:26.866Z,15
2022-08-05T03:56:52.546Z,15
2022-08-05T03:57:52.193Z,15
2022-08-05T03:58:43.490Z,15
2022-08-05T04:00:07.606Z,15
2022-08-05T04:00:44.337Z,20
2022-08-05T04:01:41.945Z,20
2022-08-05T04:03:03.454Z,20
2022-08-05T04:04:13.177Z,20
2022-08-05T04:04:46.941Z,20
2022-08-05T04:05:47.069Z,25
2022-08-05T04:06:47.694Z,25
2022-08-05T04:08:14.451Z,25
2022-08-05T04:08:50.661Z,25
2022-08-05T04:10:05.258Z,30
2022-08-05T04:10:47.583Z,30
2022-08-05T04:12:03.851Z,30
2022-08-05T04:14:02.646Z,30
2022-08-05T04:14:40.787Z,30
2022-08-05T04:16:07.212Z,35
2022-08-05T04:16:43.546Z,35
2022-08-05T04:18:11.940Z,35
2022-08-05T04:18:54.056Z,35
2022-08-05T04:19:41.362Z,35
2022-08-05T04:20:43.605Z,40
2022-08-05T04:22:31.013Z,40
2022-08-05T04:22:44.595Z,40
2022-08-05T04:24:30.017Z,40
2022-08-05T04:24:55.184Z,40
2022-08-05T04:26:17.317Z,40
2022-08-05T04:26:43.251Z,40
2022-08-05T04:28:19.638Z,40
2022-08-05T04:28:56.197Z,40
2022-08-05T04:29:44.405Z,40
2022-08-05T04:30:45.328Z,40
2022-08-05T04:31:50.826Z,40
2022-08-05T04:32:44.368Z,45
2022-08-05T04:34:47.386Z,45
2022-08-05T04:35:07.107Z,45
2022-08-05T04:36:56.588Z,45
2022-08-05T04:38:17.970Z,45
2022-08-05T04:39:08.291Z,45
2022-08-05T04:40:07.678Z,45
2022-08-05T04:41:12.325Z,45
2022-08-05T04:42:06.560Z,45
2022-08-05T04:43:07.143Z,45
2022-08-05T04:44:13.797Z,50
2022-08-05T04:45:10.049Z,50
2022-08-05T04:46:09.995Z,50
2022-08-05T04:47:22.653Z,50
2022-08-05T04:48:06.997Z,55
2022-08-05T04:49:15.000Z,55
2022-08-05T04:51:11.306Z,60
2022-08-05T04:51:25.513Z,60
2022-08-05T04:52:23.861Z,60
2022-08-05T04:53:22.907Z,60
2022-08-05T04:54:24.215Z,60
2022-08-05T04:56:40.021Z,65
2022-08-05T04:56:50.489Z,65
2022-08-05T04:58:00.927Z,65
2022-08-05T04:58:50.679Z,70
2022-08-05T04:59:54.612Z,70
2022-08-05T05:00:55.748Z,70
2022-08-05T05:02:52.291Z,75
2022-08-05T05:03:08.831Z,75
2022-08-05T05:04:06.981Z,80
2022-08-05T05:05:34.225Z,80
2022-08-05T05:07:04.804Z,80
2022-08-05T05:08:26.801Z,90
2022-08-05T05:08:57.577Z,95
2022-08-05T05:09:53.288Z,105
2022-08-05T05:11:03.685Z,120
2022-08-05T05:12:08.502Z,130
2022-08-05T05:12:54.884Z,135
2022-08-05T05:13:57.305Z,125
2022-08-05T05:14:59.321Z,115
2022-08-05T05:16:13.986Z,110
2022-08-05T05:16:56.943Z,110
2022-08-05T05:18:05.530Z,115
2022-08-05T05:19:44.117Z,130
2022-08-05T05:19:58.685Z,135
2022-08-05T05:21:03.189Z,145
2022-08-05T05:22:27.014Z,160
2022-08-05T05:22:57.417Z,165
2022-08-05T05:24:21.870Z,175
2022-08-05T05:25:40.638Z,170
2022-08-05T05:25:58.729Z,165
2022-08-05T05:27:04.646Z,145
2022-08-05T05:28:03.255Z,135
2022-08-05T05:28:59.441Z,135
2022-08-05T05:30:38.020Z,120
2022-08-05T05:30:59.615Z,115
2022-08-05T05:31:58.551Z,105
2022-08-05T05:33:00.290Z,100
2022-08-05T05:34:11.043Z,100
2022-08-05T05:35:00.070Z,95
2022-08-05T05:35:59.938Z,100
2022-08-05T05:37:01.236Z,95
2022-08-05T05:38:14.895Z,95
2022-08-05T05:38:57.004Z,95
2022-08-05T05:39:58.685Z,95
2022-08-05T05:41:01.909Z,100
2022-08-05T05:42:03.597Z,100
2022-08-05T05:42:58.542Z,100
2022-08-05T05:44:48.061Z,95
2022-08-05T05:45:05.269Z,95
2022-08-05T05:45:59.603Z,95
2022-08-05T05:47:23.559Z,100
2022-08-05T05:48:29.493Z,110
2022-08-05T05:49:22.772Z,110
2022-08-05T05:50:09.099Z,105
2022-08-05T05:50:57.673Z,105
2022-08-05T05:52:00.205Z,115
2022-08-05T05:52:59.867Z,120
2022-08-05T05:54:14.004Z,125
2022-08-05T05:55:00.608Z,120
2022-08-05T05:56:11.174Z,125
2022-08-05T05:57:02.877Z,120
2022-08-05T05:58:11.580Z,120
2022-08-05T05:59:06.340Z,130
2022-08-05T06:00:01.580Z,130
2022-08-05T06:01:02.145Z,135
2022-08-05T06:02:10.005Z,135
2022-08-05T06:02:57.643Z,135
2022-08-05T06:04:15.005Z,135
2022-08-05T06:05:10.321Z,140
2022-08-05T06:06:06.285Z,140
2022-08-05T06:07:03.800Z,140
2022-08-05T06:08:14.111Z,140
2022-08-05T06:09:00.216Z,140
2022-08-05T06:10:18.100Z,140
2022-08-05T06:11:02.665Z,140
2022-08-05T06:12:14.393Z,145
2022-08-05T06:13:00.034Z,145
2022-08-05T06:14:05.197Z,145
2022-08-05T06:15:02.825Z,145
2022-08-05T06:16:46.178Z,145
2022-08-05T06:18:02.402Z,155
2022-08-05T06:19:10.565Z,160
2022-08-05T06:20:21.603Z,160
2022-08-05T06:21:03.218Z,160
2022-08-05T06:22:02.643Z,165
2022-08-05T06:23:00.425Z,165
2022-08-05T06:24:03.985Z,165
2022-08-05T06:24:57.987Z,165
2022-08-05T06:26:38.604Z,165
2022-08-05T06:27:02.237Z,165
2022-08-05T06:28:36.391Z,170
2022-08-05T06:28:57.599Z,170
2022-08-05T06:30:30.293Z,175
2022-08-05T06:31:00.052Z,175
2022-08-05T06:32:02.320Z,180
2022-08-05T06:33:00.919Z,180
2022-08-05T06:34:22.578Z,185
2022-08-05T06:35:15.351Z,190
2022-08-05T06:36:28.213Z,200
2022-08-05T06:37:08.178Z,205
2022-08-05T06:38:18.236Z,225
2022-08-05T06:39:05.760Z,240
2022-08-05T06:40:07.255Z,265
2022-08-05T06:41:11.638Z,295
2022-08-05T06:42:08.591Z,340
2022-08-05T06:43:04.928Z,360
2022-08-05T06:44:10.425Z,370
2022-08-05T06:45:44.332Z,335
2022-08-05T06:46:16.277Z,300
2022-08-05T06:49:05.825Z,230
2022-08-05T06:50:05.018Z,210
2022-08-05T06:50:26.559Z,205
2022-08-05T06:51:40.763Z,210
2022-08-05T06:53:22.783Z,240
2022-08-05T06:53:58.007Z,245
2022-08-05T06:54:40.475Z,265
2022-08-05T06:55:50.801Z,285
2022-08-05T06:56:41.461Z,320
2022-08-05T06:58:41.693Z,345
2022-08-05T06:58:57.146Z,345
2022-08-05T07:00:07.014Z,345
2022-08-05T07:00:57.375Z,340
2022-08-05T07:02:03.419Z,330
2022-08-05T07:03:02.951Z,310
2022-08-05T07:03:56.999Z,295
2022-08-05T07:05:00.476Z,305
2022-08-05T07:05:59.193Z,330
2022-08-05T07:07:02.693Z,325
2022-08-05T07:07:57.157Z,340
2022-08-05T07:09:06.729Z,340
2022-08-05T07:10:09.917Z,330
2022-08-05T07:11:04.041Z,300
2022-08-05T07:12:05.359Z,305
2022-08-05T07:12:58.841Z,305
2022-08-05T07:14:15.279Z,325
2022-08-05T07:15:03.040Z,320
2022-08-05T07:18:13.570Z,290
2022-08-05T07:18:50.026Z,255
2022-08-05T07:20:45.741Z,210
2022-08-05T07:20:58.213Z,205
2022-08-05T07:22:17.970Z,180
2022-08-05T07:22:57.894Z,175
2022-08-05T07:24:13.638Z,190
2022-08-05T07:25:55.845Z,205
2022-08-05T07:26:07.043Z,215
2022-08-05T07:27:10.992Z,230
2022-08-05T07:28:21.705Z,250
2022-08-05T07:29:09.031Z,255
2022-08-05T07:30:47.492Z,265
2022-08-05T07:31:07.265Z,265
2022-08-05T07:32:10.537Z,265
2022-08-05T07:33:19.124Z,265
2022-08-05T07:34:16.140Z,250
2022-08-05T07:36:25.865Z,225
2022-08-05T07:36:41.712Z,220
2022-08-05T07:37:55.043Z,205
2022-08-05T07:38:57.315Z,215
2022-08-05T07:40:46.909Z,225
2022-08-05T07:42:34.195Z,265
2022-08-05T07:42:53.062Z,265
2022-08-05T07:43:49.756Z,255
2022-08-05T07:44:51.246Z,255
2022-08-05T07:46:26.950Z,240
2022-08-05T07:46:53.804Z,215
2022-08-05T07:47:58.079Z,230
2022-08-05T07:49:16.424Z,215
2022-08-05T07:50:11.393Z,215
2022-08-05T07:50:50.444Z,200
2022-08-05T07:52:01.833Z,205
2022-08-05T07:52:49.932Z,200
2022-08-05T07:54:04.390Z,210
2022-08-05T07:54:57.523Z,205
2022-08-05T07:58:04.170Z,230
2022-08-05T07:59:04.152Z,235
2022-08-05T07:59:41.399Z,235
2022-08-05T08:00:21.740Z,230
2022-08-05T08:01:32.055Z,220
2022-08-05T08:03:14.499Z,220
2022-08-05T08:03:53.682Z,245
2022-08-05T08:04:47.509Z,250
2022-08-05T08:05:28.507Z,255
2022-08-05T08:06:30.526Z,260
2022-08-05T08:08:01.415Z,260
2022-08-05T08:08:30.913Z,265
2022-08-05T08:09:33.936Z,275
2022-08-05T08:10:35.323Z,290
2022-08-05T08:12:09.519Z,270
2022-08-05T08:13:00.620Z,275
2022-08-05T08:14:03.461Z,290
2022-08-05T08:14:28.203Z,285
2022-08-05T08:16:56.081Z,265
2022-08-05T08:17:08.058Z,260
2022-08-05T08:18:25.773Z,240
2022-08-05T08:20:23.215Z,240
2022-08-05T08:21:22.947Z,220
2022-08-05T08:21:57.340Z,215
2022-08-05T08:22:58.097Z,205
2022-08-05T08:24:22.255Z,225
2022-08-05T08:25:59.549Z,215
2022-08-05T08:26:15.050Z,215
2022-08-05T08:27:22.248Z,215
2022-08-05T08:28:42.409Z,225
2022-08-05T08:30:47.627Z,210
2022-08-05T08:31:00.219Z,200
2022-08-05T08:31:59.871Z,195
2022-08-05T08:33:08.069Z,200
2022-08-05T08:34:02.425Z,210
2022-08-05T08:35:02.008Z,220
2022-08-05T08:37:05.826Z,185
2022-08-05T08:37:39.012Z,185
2022-08-05T08:38:37.808Z,185
2022-08-05T08:39:27.604Z,190
2022-08-05T08:40:17.652Z,200
2022-08-05T08:41:20.317Z,195
2022-08-05T08:45:26.913Z,205
2022-08-05T08:45:42.202Z,205
2022-08-05T08:46:41.853Z,205
2022-08-05T08:50:52.758Z,195
2022-08-05T08:52:20.100Z,195
2022-08-05T08:53:34.325Z,195
2022-08-05T08:54:38.756Z,190
2022-08-05T08:56:12.521Z,190
2022-08-05T08:56:36.363Z,190
2022-08-05T08:58:02.910Z,190
2022-08-05T08:58:55.163Z,190
2022-08-05T08:59:38.541Z,190
2022-08-05T09:00:34.173Z,190
2022-08-05T09:01:31.998Z,190
2022-08-05T09:02:36.933Z,190
2022-08-05T09:03:48.164Z,190
2022-08-05T09:05:38.194Z,190
2022-08-05T09:06:32.451Z,195
2022-08-05T09:08:01.801Z,190
2022-08-05T09:08:20.558Z,190
2022-08-05T09:09:20.866Z,190
2022-08-05T09:10:21.132Z,190
2022-08-05T09:12:03.319Z,190
2022-08-05T09:12:38.311Z,190
2022-08-05T09:13:31.635Z,190
2022-08-05T09:15:15.338Z,195
2022-08-05T09:16:31.716Z,195
2022-08-05T09:17:58.154Z,190
2022-08-05T09:18:26.282Z,195
2022-08-05T09:20:05.655Z,190
2022-08-05T09:20:46.405Z,190
2022-08-05T09:22:54.170Z,190
2022-08-05T09:23:37.388Z,190
2022-08-05T09:24:17.439Z,190
2022-08-05T09:26:15.968Z,185
2022-08-05T09:26:38.844Z,185
2022-08-05T09:28:23.649Z,185
2022-08-05T09:28:40.077Z,185
2022-08-05T09:29:54.860Z,185
2022-08-05T09:30:35.197Z,185
2022-08-05T09:32:57.287Z,185
2022-08-05T09:34:09.731Z,185
2022-08-05T09:35:10.447Z,190
2022-08-05T09:36:21.890Z,190
2022-08-05T09:38:17.826Z,205
2022-08-05T09:38:38.987Z,205
2022-08-05T09:40:00.277Z,220
2022-08-05T09:40:34.224Z,220
2022-08-05T09:41:38.236Z,225
2022-08-05T09:42:39.506Z,210
2022-08-05T09:43:43.845Z,235
2022-08-05T09:44:33.863Z,280
2022-08-05T09:46:29.811Z,365
2022-08-05T09:46:58.102Z,380
2022-08-05T09:48:03.346Z,410
2022-08-05T09:48:40.587Z,430
2022-08-05T09:50:13.006Z,440
2022-08-05T09:50:52.162Z,450
2022-08-05T09:51:51.572Z,470
2022-08-05T09:52:55.158Z,475
2022-08-05T09:54:07.309Z,450
2022-08-05T09:54:42.598Z,455
2022-08-05T09:56:18.032Z,440
2022-08-05T09:56:40.178Z,455
2022-08-05T09:57:49.501Z,430
2022-08-05T09:58:50.308Z,410
2022-08-05T09:59:47.532Z,395
2022-08-05T10:00:42.704Z,390
2022-08-05T10:01:48.249Z,395
2022-08-05T10:02:43.561Z,385
2022-08-05T10:04:12.949Z,395
2022-08-05T10:04:46.172Z,420
2022-08-05T10:05:42.954Z,400
2022-08-05T10:06:41.030Z,395
2022-08-05T10:08:58.894Z,395
2022-08-05T10:09:47.547Z,390
2022-08-05T10:10:39.303Z,365
2022-08-05T10:11:29.637Z,355
2022-08-05T10:12:55.017Z,330
2022-08-05T10:13:44.330Z,330
2022-08-05T10:14:30.211Z,275
2022-08-05T10:15:28.408Z,245
2022-08-05T10:16:30.484Z,235
2022-08-05T10:18:01.131Z,265
2022-08-05T10:18:27.511Z,275
2022-08-05T10:20:12.322Z,325
2022-08-05T10:20:29.899Z,345
2022-08-05T10:21:43.125Z,370
2022-08-05T10:22:55.737Z,390
2022-08-05T10:24:15.638Z,390
2022-08-05T10:24:41.895Z,395
2022-08-05T10:25:29.549Z,405
2022-08-05T10:26:54.086Z,370
2022-08-05T10:28:38.706Z,355
2022-08-05T10:28:52.411Z,360
2022-08-05T10:33:14.841Z,415
2022-08-05T10:33:25.671Z,435
2022-08-05T10:34:35.696Z,400
2022-08-05T10:35:49.678Z,370
2022-08-05T10:36:33.260Z,340
2022-08-05T10:37:47.156Z,290
2022-08-05T10:38:35.675Z,265
2022-08-05T10:40:30.242Z,280
2022-08-05T10:40:47.232Z,280
2022-08-05T10:42:01.118Z,270
2022-08-05T10:42:49.233Z,270
2022-08-05T10:43:46.109Z,290
2022-08-05T10:44:44.148Z,310
2022-08-05T10:46:08.370Z,305
2022-08-05T10:46:42.126Z,310
2022-08-05T10:48:27.660Z,315
2022-08-05T10:49:19.244Z,275
2022-08-05T10:50:44.368Z,235
2022-08-05T10:51:00.169Z,225
2022-08-05T10:52:15.079Z,210
2022-08-05T10:53:06.208Z,210
2022-08-05T10:54:02.127Z,215
2022-08-05T10:55:07.003Z,210
2022-08-05T10:56:32.066Z,255
2022-08-05T10:57:02.626Z,265
2022-08-05T10:58:05.696Z,255
2022-08-05T10:59:12.379Z,255
2022-08-05T11:00:25.593Z,275
2022-08-05T11:01:15.009Z,270
2022-08-05T11:02:43.573Z,245
2022-08-05T11:03:27.033Z,250
2022-08-05T11:04:00.197Z,265
2022-08-05T11:05:02.432Z,275
2022-08-05T11:06:18.079Z,300
2022-08-05T11:07:01.324Z,320
2022-08-05T11:08:42.775Z,345
2022-08-05T11:09:00.269Z,345
2022-08-05T11:10:17.318Z,355
2022-08-05T11:11:21.389Z,355
2022-08-05T11:12:03.231Z,345
2022-08-05T11:13:07.281Z,345
2022-08-05T11:14:10.672Z,375
2022-08-05T11:16:02.711Z,365
2022-08-05T11:16:16.661Z,365
2022-08-05T11:18:16.778Z,350
2022-08-05T11:18:34.930Z,340
2022-08-05T11:20:32.748Z,325
2022-08-05T11:22:05.427Z,355
2022-08-05T11:22:53.713Z,365
2022-08-05T11:24:40.919Z,375
2022-08-05T11:26:27.849Z,375
2022-08-05T11:26:49.498Z,380
2022-08-05T11:28:08.237Z,410
2022-08-05T11:28:45.954Z,415
2022-08-05T11:29:44.327Z,415
2022-08-05T11:30:55.365Z,410
2022-08-05T11:32:10.224Z,380
2022-08-05T11:32:50.274Z,375
2022-08-05T11:33:55.438Z,365
2022-08-05T11:34:54.564Z,350
2022-08-05T11:36:13.754Z,340
2022-08-05T11:36:55.258Z,325
2022-08-05T11:39:00.501Z,345
2022-08-05T11:40:20.646Z,390
2022-08-05T11:42:09.670Z,440
2022-08-05T11:42:40.174Z,445
2022-08-05T11:44:53.553Z,375
2022-08-05T11:45:23.497Z,370
2022-08-05T11:47:48.165Z,365
2022-08-05T11:48:05.496Z,375
2022-08-05T11:49:01.784Z,380
2022-08-05T11:50:04.099Z,375
2022-08-05T11:50:59.053Z,380
2022-08-05T11:52:08.362Z,385
2022-08-05T11:53:09.941Z,365
2022-08-05T11:54:05.870Z,325
2022-08-05T11:55:13.123Z,275
2022-08-05T11:56:03.768Z,240
2022-08-05T11:57:07.843Z,215
2022-08-05T11:58:25.277Z,205
2022-08-05T11:59:04.169Z,205
2022-08-05T11:59:59.828Z,205
2022-08-05T12:01:08.415Z,200
2022-08-05T12:02:03.453Z,225
2022-08-05T12:03:04.108Z,250
2022-08-05T12:04:06.131Z,240
2022-08-05T12:05:32.198Z,255
2022-08-05T12:06:02.366Z,265
2022-08-05T12:07:04.239Z,295
2022-08-05T12:08:27.747Z,280
2022-08-05T12:09:00.819Z,280
2022-08-05T12:10:13.833Z,290
2022-08-05T12:11:07.765Z,285
2022-08-05T12:12:04.894Z,285
2022-08-05T12:13:51.194Z,285
2022-08-05T12:14:10.151Z,275
2022-08-05T12:15:11.953Z,280
2022-08-05T12:16:05.318Z,265
2022-08-05T12:17:03.681Z,275
2022-08-05T12:18:24.223Z,285
2022-08-05T12:20:35.472Z,310
2022-08-05T12:20:51.537Z,305
2022-08-05T12:21:51.055Z,320
2022-08-05T12:22:57.615Z,315
2022-08-05T12:23:56.213Z,310
2022-08-05T12:24:57.684Z,305
2022-08-05T12:25:48.058Z,285
2022-08-05T12:26:51.619Z,300
2022-08-05T12:28:08.127Z,340
2022-08-05T12:28:51.399Z,375
2022-08-05T12:29:59.417Z,395
2022-08-05T12:30:55.253Z,395
2022-08-05T12:32:04.487Z,380
2022-08-05T12:32:56.306Z,365
2022-08-05T12:33:50.796Z,360
2022-08-05T12:34:46.888Z,365
2022-08-05T12:35:57.245Z,365
2022-08-05T12:36:49.309Z,380
2022-08-05T12:37:48.278Z,355
2022-08-05T12:38:47.312Z,340
2022-08-05T12:39:54.116Z,310
2022-08-05T12:40:52.726Z,320
2022-08-05T12:42:00.349Z,360
2022-08-05T12:42:45.704Z,370
2022-08-05T12:43:52.824Z,360
2022-08-05T12:44:52.202Z,330
2022-08-05T12:45:59.204Z,295
2022-08-05T12:46:53.343Z,290
2022-08-05T12:48:37.586Z,315
2022-08-05T12:48:52.633Z,320
2022-08-05T12:50:19.731Z,340
2022-08-05T12:50:53.235Z,340
2022-08-05T12:52:43.560Z,295
2022-08-05T12:53:02.416Z,290
2022-08-05T12:54:14.644Z,250
2022-08-05T12:54:58.978Z,220
2022-08-05T12:56:01.250Z,195
2022-08-05T12:57:01.404Z,185
2022-08-05T12:59:47.106Z,220
2022-08-05T13:02:17.606Z,305
2022-08-05T13:03:17.302Z,345
2022-08-05T13:04:17.840Z,375
2022-08-05T13:05:08.194Z,385
2022-08-05T13:06:08.008Z,385
2022-08-05T13:07:57.881Z,330
2022-08-05T13:08:19.453Z,305
2022-08-05T13:09:12.533Z,255
2022-08-05T13:10:11.696Z,210
2022-08-05T13:11:11.100Z,180
2022-08-05T13:12:20.754Z,165
2022-08-05T13:14:10.135Z,150
2022-08-05T13:14:47.152Z,145
2022-08-05T13:15:55.341Z,140
2022-08-05T13:16:30.441Z,140
2022-08-05T13:17:50.076Z,135
2022-08-05T13:18:31.079Z,135
2022-08-05T13:19:27.330Z,140
2022-08-05T13:20:40.158Z,135
2022-08-05T13:21:52.477Z,135
2022-08-05T13:22:42.641Z,140
2022-08-05T13:23:32.173Z,135
2022-08-05T13:25:22.083Z,135
2022-08-05T13:26:13.701Z,135
2022-08-05T13:27:03.517Z,135
2022-08-05T13:28:02.334Z,135
2022-08-05T13:29:05.093Z,135
2022-08-05T13:30:45.891Z,135
2022-08-05T13:31:16.424Z,130
2022-08-05T13:32:29.198Z,130
2022-08-05T13:33:06.193Z,135
2022-08-05T13:34:33.268Z,130
2022-08-05T13:35:00.819Z,130
2022-08-05T13:36:11.658Z,130
2022-08-05T13:37:01.947Z,130
2022-08-05T13:38:30.190Z,130
2022-08-05T13:39:01.622Z,130
2022-08-05T13:40:57.198Z,135
2022-08-05T13:42:16.622Z,145
2022-08-05T13:43:24.066Z,150
2022-08-05T13:44:12.154Z,145
2022-08-05T13:45:11.810Z,140
2022-08-05T13:46:11.483Z,125
2022-08-05T13:49:03.837Z,120
2022-08-05T13:49:19.745Z,120
2022-08-05T13:50:23.899Z,130
2022-08-05T13:51:18.232Z,155
2022-08-05T13:52:17.824Z,165
2022-08-05T13:53:25.704Z,190
2022-08-05T13:54:29.356Z,195
2022-08-05T13:56:04.751Z,195
2022-08-05T13:56:28.153Z,195
2022-08-05T13:57:54.029Z,180
2022-08-05T13:58:54.908Z,170
2022-08-05T13:59:36.624Z,170
2022-08-05T14:00:36.456Z,175
2022-08-05T14:02:01.909Z,150
2022-08-05T14:02:38.079Z,150
2022-08-05T14:03:28.900Z,160
2022-08-05T14:04:30.899Z,145
2022-08-05T14:06:31.139Z,150
2022-08-05T14:06:49.934Z,150
2022-08-05T14:08:37.467Z,180
2022-08-05T14:08:51.418Z,190
2022-08-05T14:09:55.778Z,200
2022-08-05T14:10:50.984Z,240
2022-08-05T14:12:42.774Z,240
2022-08-05T14:13:04.394Z,245
2022-08-05T14:14:08.908Z,255
2022-08-05T14:15:00.635Z,265
2022-08-05T14:16:24.240Z,240
2022-08-05T14:17:05.569Z,260
2022-08-05T14:18:17.968Z,240
2022-08-05T14:19:06.918Z,235
2022-08-05T14:20:19.831Z,225
2022-08-05T14:22:14.902Z,215
2022-08-05T14:22:34.363Z,215
2022-08-05T14:23:44.128Z,200
2022-08-05T14:24:28.952Z,190
2022-08-05T14:25:35.225Z,170
2022-08-05T14:27:23.252Z,160
2022-08-05T14:27:47.293Z,155
2022-08-05T14:28:54.395Z,150
2022-08-05T14:29:41.457Z,150
2022-08-05T14:30:48.467Z,150
2022-08-05T14:32:35.653Z,155
2022-08-05T14:34:16.382Z,160
2022-08-05T14:34:53.911Z,155
2022-08-05T14:36:04.445Z,160
2022-08-05T14:36:55.563Z,145
2022-08-05T14:38:06.495Z,160
2022-08-05T14:38:51.244Z,170
2022-08-05T14:40:08.121Z,190
2022-08-05T14:40:54.950Z,200
2022-08-05T14:42:29.543Z,220
2022-08-05T14:42:51.416Z,220
2022-08-05T14:44:32.493Z,215
2022-08-05T14:44:51.170Z,215
2022-08-05T14:45:50.552Z,190
2022-08-05T14:46:51.691Z,200
2022-08-05T14:48:40.704Z,195
2022-08-05T14:48:57.674Z,200
2022-08-05T14:50:27.586Z,190
2022-08-05T14:50:53.212Z,180
2022-08-05T14:51:53.276Z,165
2022-08-05T14:53:08.000Z,165
2022-08-05T14:54:55.084Z,155
2022-08-05T14:55:08.250Z,150
2022-08-05T14:56:06.680Z,160
2022-08-05T14:57:15.845Z,160
2022-08-05T14:58:16.437Z,135
2022-08-05T14:59:07.809Z,125
2022-08-05T15:00:06.368Z,125
2022-08-05T15:01:21.284Z,130
2022-08-05T15:02:18.302Z,140
2022-08-05T15:03:11.986Z,165
2022-08-05T15:04:05.805Z,170
2022-08-05T15:05:18.008Z,160
2022-08-05T15:06:30.419Z,160
2022-08-05T15:07:07.673Z,160
2022-08-05T15:09:07.546Z,165
2022-08-05T15:09:57.288Z,165
2022-08-05T15:10:19.596Z,165
2022-08-05T15:11:19.549Z,160
2022-08-05T15:12:36.825Z,150
2022-08-05T15:13:20.149Z,150
2022-08-05T15:14:51.650Z,130
2022-08-05T15:16:01.127Z,150
2022-08-05T15:16:24.443Z,135
2022-08-05T15:18:06.056Z,125
2022-08-05T15:18:21.894Z,125
2022-08-05T15:19:35.111Z,140
2022-08-05T15:20:32.068Z,145
2022-08-05T15:21:23.484Z,140
2022-08-05T15:22:20.316Z,145
2022-08-05T15:23:19.325Z,135
2022-08-05T15:24:22.196Z,140
2022-08-05T15:26:02.554Z,165
2022-08-05T15:26:34.585Z,180
2022-08-05T15:27:31.971Z,185
2022-08-05T15:28:29.152Z,200
2022-08-05T15:29:18.413Z,210
2022-08-05T15:30:22.165Z,215
2022-08-05T15:31:22.196Z,225
2022-08-05T15:32:21.204Z,225
2022-08-05T15:34:34.878Z,205
2022-08-05T15:34:46.404Z,205
2022-08-05T15:35:56.880Z,210
2022-08-05T15:36:46.279Z,205
2022-08-05T15:38:51.290Z,220
2022-08-05T15:43:01.542Z,230
2022-08-05T15:43:47.601Z,240
2022-08-05T15:44:28.181Z,245
2022-08-05T15:45:43.277Z,265
2022-08-05T15:46:29.617Z,285
2022-08-05T15:47:31.707Z,265
2022-08-05T15:48:24.813Z,260
2022-08-05T15:50:04.336Z,260
2022-08-05T15:50:34.634Z,260
2022-08-05T15:52:58.606Z,230
2022-08-05T15:53:17.420Z,225
2022-08-05T15:54:37.293Z,210
2022-08-05T15:55:24.779Z,210
2022-08-05T15:56:22.635Z,210
2022-08-05T15:57:18.453Z,210
2022-08-05T15:58:23.097Z,190
2022-08-05T15:59:26.213Z,175
2022-08-05T16:00:13.697Z,155
2022-08-05T16:01:53.065Z,145
2022-08-05T16:02:33.857Z,160
2022-08-05T16:03:17.228Z,165
2022-08-05T16:04:27.552Z,175
2022-08-05T16:05:17.607Z,180
2022-08-05T16:06:22.881Z,180
2022-08-05T16:07:20.473Z,175
2022-08-05T16:08:21.629Z,175
2022-08-05T16:09:17.078Z,170
2022-08-05T16:10:26.939Z,175
2022-08-05T16:11:15.915Z,175
2022-08-05T16:12:15.168Z,175
2022-08-05T16:13:31.981Z,170
2022-08-05T16:14:19.859Z,165
2022-08-05T16:15:23.097Z,165
2022-08-05T16:16:25.397Z,160
2022-08-05T16:17:16.026Z,165
2022-08-05T16:18:30.170Z,150
2022-08-05T16:20:11.911Z,145
2022-08-05T16:20:27.859Z,145
2022-08-05T16:22:02.760Z,155
2022-08-05T16:22:36.825Z,150
2022-08-05T16:23:23.349Z,155
2022-08-05T16:24:58.868Z,165
2022-08-05T16:25:22.728Z,165
2022-08-05T16:26:29.372Z,165
2022-08-05T16:28:09.623Z,175
2022-08-05T16:28:30.098Z,180
2022-08-05T16:29:29.055Z,190
2022-08-05T16:30:36.401Z,200
2022-08-05T16:31:22.246Z,205
2022-08-05T16:32:32.086Z,210
2022-08-05T16:33:24.554Z,200
2022-08-05T16:34:26.378Z,190
2022-08-05T16:35:42.543Z,180
2022-08-05T16:36:29.015Z,175
2022-08-05T16:38:32.637Z,180
2022-08-05T16:38:56.702Z,180
2022-08-05T16:40:35.327Z,195
2022-08-05T16:40:59.982Z,190
2022-08-05T16:42:36.572Z,165
2022-08-05T16:42:52.418Z,165
2022-08-05T16:43:47.545Z,165
2022-08-05T16:45:01.227Z,175
2022-08-05T16:46:30.840Z,185
2022-08-05T16:47:03.484Z,180
2022-08-05T16:48:25.077Z,160
2022-08-05T16:48:47.991Z,155
2022-08-05T16:49:47.825Z,140
2022-08-05T16:50:47.422Z,125
2022-08-05T16:52:04.876Z,125
2022-08-05T16:52:58.989Z,120
2022-08-05T16:54:35.354Z,105
2022-08-05T16:54:50.215Z,105
2022-08-05T16:55:59.285Z,105
2022-08-05T16:56:56.598Z,100
2022-08-05T16:58:19.794Z,100
2022-08-05T16:58:48.094Z,100
2022-08-05T17:00:37.669Z,105
2022-08-05T17:00:54.528Z,110
2022-08-05T17:02:07.695Z,110
2022-08-05T17:02:48.217Z,115
2022-08-05T17:03:48.022Z,120
2022-08-05T17:04:50.937Z,120
2022-08-05T17:05:54.126Z,120
2022-08-05T17:07:03.386Z,125
2022-08-05T17:08:02.028Z,125
2022-08-05T17:09:04.509Z,125
2022-08-05T17:10:07.367Z,130
2022-08-05T17:10:47.349Z,130
2022-08-05T17:12:07.452Z,125
2022-08-05T17:13:02.663Z,125
2022-08-05T17:13:54.829Z,125
2022-08-05T17:14:50.209Z,125
2022-08-05T17:16:35.941Z,120
2022-08-05T17:16:55.748Z,120
2022-08-05T17:18:04.673Z,110
2022-08-05T17:18:50.956Z,105
2022-08-05T17:19:57.850Z,110
2022-08-05T17:20:51.917Z,130
2022-08-05T17:21:59.348Z,135
2022-08-05T17:22:58.698Z,125
2022-08-05T17:25:00.232Z,105
2022-08-05T17:25:47.078Z,100
2022-08-05T17:26:14.190Z,100
2022-08-05T17:27:10.651Z,110
2022-08-05T17:28:15.441Z,125
2022-08-05T17:29:22.424Z,130
2022-08-05T17:30:32.839Z,130
2022-08-05T17:32:04.141Z,120
2022-08-05T17:32:27.841Z,125
2022-08-05T17:33:18.206Z,125
2022-08-05T17:34:37.151Z,95
2022-08-05T17:35:23.232Z,100
2022-08-05T17:36:45.738Z,90
2022-08-05T17:37:53.383Z,85
2022-08-05T17:38:19.742Z,85
2022-08-05T17:39:45.819Z,80
2022-08-05T17:40:24.726Z,80
2022-08-05T17:42:49.798Z,80
2022-08-05T17:43:10.069Z,75
2022-08-05T17:44:05.738Z,70
2022-08-05T17:45:09.731Z,65
2022-08-05T17:46:06.790Z,60
2022-08-05T17:47:04.449Z,55
2022-08-05T17:48:05.156Z,55
2022-08-05T17:49:02.791Z,50
2022-08-05T17:50:30.768Z,50
2022-08-05T17:51:03.428Z,50
2022-08-05T17:52:05.394Z,45
2022-08-05T17:53:04.594Z,45
2022-08-05T17:54:04.872Z,40
2022-08-05T17:55:02.954Z,30
2022-08-05T17:56:05.165Z,25
2022-08-05T17:57:14.662Z,25
2022-08-05T17:58:01.667Z,25
2022-08-05T17:59:01.605Z,25
2022-08-05T18:00:18.783Z,20
2022-08-05T18:01:14.485Z,15
2022-08-05T18:02:01.633Z,15
2022-08-05T18:03:02.494Z,10
2022-08-05T18:04:30.380Z,10
2022-08-05T18:05:09.426Z,10
2022-08-05T18:06:14.909Z,5
2022-08-05T18:07:14.816Z,5
2022-08-05T18:08:03.779Z,5
2022-08-05T18:09:06.172Z,5
2022-08-05T18:10:25.511Z,5
2022-08-05T18:11:05.495Z,5
2022-08-05T18:12:06.496Z,5
2022-08-05T18:13:07.737Z,5
2022-08-05T18:14:06.506Z,0
2022-08-05T18:15:03.552Z,0
2022-08-05T18:16:04.689Z,0
2022-08-05T18:17:07.869Z,0
2022-08-05T18:18:21.257Z,0
2022-08-05T18:19:11.577Z,0
2022-08-05T18:20:19.528Z,0
2022-08-05T18:22:08.026Z,0
2022-08-05T18:23:00.348Z,0
2022-08-05T18:23:36.390Z,0
2022-08-05T18:24:23.433Z,0
2022-08-05T18:25:35.339Z,0
2022-08-05T18:26:34.526Z,0
2022-08-05T18:27:29.995Z,0
2022-08-05T18:28:33.325Z,0
2022-08-05T18:29:57.207Z,0
2022-08-05T18:30:23.057Z,0
2022-08-05T18:31:32.901Z,0
2022-08-05T18:32:30.994Z,0
2022-08-05T18:33:45.321Z,0
2022-08-05T18:34:43.123Z,0
2022-08-05T18:36:01.570Z,0
2022-08-05T18:36:32.930Z,0
2022-08-05T18:37:50.436Z,0
2022-08-05T18:38:32.980Z,0
2022-08-05T18:42:13.858Z,0
2022-08-05T18:42:29.698Z,0